Orbital elements of FENGYUN 1C DEB
| Launched | 9 May 1999 |
| Flight ended | – |
| Launch site | Taiyuan Space Center, PRC |
| Owner | People's Republic of China |
| NORAD ID | 30224 |
| Date fetched |
Epoch osculation |
Inc. [°] |
Ecc. | RA asc node [hr] |
Arg Peri. [°] |
Mean anom [°] |
Mean motion [rev/day] |
Abs. mag |
| Date fetched |
Epoch osculation |
Inc. [°] |
Ecc. | RA asc node [hr] |
Arg Peri. [°] |
Mean anom [°] |
Mean motion [rev/day] |
Abs. mag |
| 2026 May 05 17:57 | 2026 May 05 01:39:46 | 99.4612 | 0.01104 | 11.4272 | 319.6874 | 99.5279 | 13.89996 | – |
| 2026 May 04 17:57 | 2026 Apr 30 14:53:59 | 99.4618 | 0.01105 | 11.1255 | 331.7096 | 99.5279 | 13.89996 | – |
| 2026 May 03 17:57 | 2026 Apr 30 14:53:59 | 99.4618 | 0.01105 | 11.1255 | 331.7096 | 99.5279 | 13.89996 | – |
| 2026 May 02 17:57 | 2026 Apr 30 14:53:59 | 99.4618 | 0.01105 | 11.1255 | 331.7096 | 99.5279 | 13.89996 | – |
| 2026 May 01 17:56 | 2026 Apr 30 14:53:59 | 99.4618 | 0.01105 | 11.1255 | 331.7096 | 99.5279 | 13.89996 | – |
| 2026 Apr 30 17:56 | 2026 Apr 30 14:53:59 | 99.4618 | 0.01105 | 11.1255 | 331.7096 | 99.5279 | 13.89996 | – |
| 2026 Apr 29 17:57 | 2026 Apr 24 01:11:42 | 99.4626 | 0.01108 | 10.6799 | 349.4192 | 99.5279 | 13.89996 | – |
| 2026 Apr 28 17:56 | 2026 Apr 24 01:11:42 | 99.4626 | 0.01108 | 10.6799 | 349.4192 | 99.5279 | 13.89996 | – |
| 2026 Apr 27 17:58 | 2026 Apr 24 01:11:42 | 99.4626 | 0.01108 | 10.6799 | 349.4192 | 99.5279 | 13.89996 | – |
| 2026 Apr 26 17:58 | 2026 Apr 24 01:11:42 | 99.4626 | 0.01108 | 10.6799 | 349.4192 | 99.5279 | 13.89996 | – |
| 2026 Apr 25 17:58 | 2026 Apr 24 01:11:42 | 99.4626 | 0.01108 | 10.6799 | 349.4192 | 99.5279 | 13.89996 | – |
| 2026 Apr 24 17:59 | 2026 Apr 24 01:11:42 | 99.4626 | 0.01108 | 10.6799 | 349.4192 | 99.5279 | 13.89996 | – |
| 2026 Apr 23 17:57 | 2026 Apr 19 02:00:02 | 99.4636 | 0.01111 | 10.3432 | 2.7830 | 99.5279 | 13.89996 | – |
| 2026 Apr 22 17:57 | 2026 Apr 19 02:00:02 | 99.4636 | 0.01111 | 10.3432 | 2.7830 | 99.5279 | 13.89996 | – |
| 2026 Apr 21 17:57 | 2026 Apr 19 02:00:02 | 99.4636 | 0.01111 | 10.3432 | 2.7830 | 99.5279 | 13.89996 | – |
| 2026 Apr 20 17:57 | 2026 Apr 19 02:00:02 | 99.4636 | 0.01111 | 10.3432 | 2.7830 | 99.5279 | 13.89996 | – |
| 2026 Apr 19 17:58 | 2026 Apr 19 02:00:02 | 99.4636 | 0.01111 | 10.3432 | 2.7830 | 99.5279 | 13.89996 | – |
| 2026 Apr 18 17:56 | 2026 Apr 13 02:35:49 | 99.4645 | 0.01114 | 9.9379 | 18.8026 | 99.5279 | 13.89996 | – |
| 2026 Apr 16 17:57 | 2026 Apr 13 02:35:49 | 99.4645 | 0.01114 | 9.9379 | 18.8026 | 99.5279 | 13.89996 | – |
| 2026 Apr 14 17:57 | 2026 Apr 13 02:35:49 | 99.4645 | 0.01114 | 9.9379 | 18.8026 | 99.5279 | 13.89996 | – |
| 2026 Apr 13 17:57 | 2026 Apr 13 02:35:49 | 99.4645 | 0.01114 | 9.9379 | 18.8026 | 99.5279 | 13.89996 | – |
| 2026 Apr 12 17:57 | 2026 Apr 08 14:22:12 | 99.4652 | 0.01116 | 9.6321 | 30.8719 | 99.5279 | 13.89996 | – |
| 2026 Apr 11 17:57 | 2026 Apr 08 14:22:12 | 99.4652 | 0.01116 | 9.6321 | 30.8719 | 99.5279 | 13.89996 | – |
| 2026 Apr 10 17:58 | 2026 Apr 08 14:22:12 | 99.4652 | 0.01116 | 9.6321 | 30.8719 | 99.5279 | 13.89996 | – |
| 2026 Apr 09 18:01 | 2026 Apr 08 14:22:12 | 99.4652 | 0.01116 | 9.6321 | 30.8719 | 99.5279 | 13.89996 | – |
| 2026 Apr 08 17:57 | 2026 Apr 08 14:22:12 | 99.4652 | 0.01116 | 9.6321 | 30.8719 | 99.5279 | 13.89996 | – |